Time;durP1;ratioP1;P1;durP2;ratioP2;P2;SDS_P1;SDS_P2;PMS_P1;PMS_P2;Temp;Humidity;BMP_temperature;BMP_pressure;BME280_temperature;BME280_humidity;BME280_pressure;Samples;Min_cycle;Max_cycle;Signal;HPM_P1;HPM_P2
2023/06/22 00:01:00;;;;;;;5.70;5.20;;;23.20;71.50;;;25.99;47.85;101872.53;5040360;28;20599;-59
2023/06/22 00:03:29;;;;;;;5.77;4.97;;;23.20;71.40;;;26.03;47.03;101887.16;5056014;28;20197;-58
2023/06/22 00:05:56;;;;;;;7.13;5.90;;;23.30;71.40;;;26.07;46.88;101882.09;5045485;28;20616;-58
2023/06/22 00:08:23;;;;;;;5.20;4.80;;;23.30;71.10;;;26.08;47.56;101879.13;5036277;28;20246;-57
2023/06/22 00:10:50;;;;;;;5.90;5.40;;;23.30;71.10;;;26.09;47.49;101888.06;5042776;28;20278;-58
2023/06/22 00:13:17;;;;;;;5.50;5.10;;;23.30;70.90;;;26.08;46.90;101889.13;5055889;28;20197;-60
2023/06/22 00:15:44;;;;;;;6.17;5.67;;;23.30;70.60;;;26.03;46.50;101889.06;5055723;28;20267;-59
2023/06/22 00:18:13;;;;;;;6.30;5.80;;;23.30;70.40;;;25.97;46.67;101892.75;5055879;28;20186;-56
2023/06/22 00:20:41;;;;;;;6.00;5.50;;;23.20;70.40;;;25.91;47.19;101891.06;5055888;28;20186;-59
2023/06/22 00:23:09;;;;;;;6.67;6.03;;;23.20;70.70;;;25.84;47.38;101879.63;5055475;28;20198;-58
2023/06/22 00:25:37;;;;;;;5.60;5.20;;;23.10;70.80;;;25.79;46.99;101885.75;5054954;28;20221;-59
2023/06/22 00:28:04;;;;;;;5.90;5.47;;;23.00;71.80;;;25.74;47.46;101885.69;5055375;28;20210;-57
2023/06/22 00:30:32;;;;;;;6.17;5.67;;;22.90;71.70;;;25.71;47.76;101886.16;5055272;28;20202;-60
2023/06/22 00:33:00;;;;;;;6.27;5.67;;;22.90;72.10;;;25.73;48.20;101886.72;5055672;28;20194;-59
2023/06/22 00:35:29;;;;;;;6.30;5.70;;;22.90;72.30;;;25.76;48.36;101880.03;5055475;28;20300;-59
2023/06/22 00:38:03;;;;;;;7.67;6.97;;;22.90;72.40;;;25.80;47.59;101879.28;5055690;28;20195;-59
2023/06/22 00:40:32;;;;;;;6.93;6.33;;;23.00;72.30;;;25.80;47.62;101886.53;5055931;28;20268;-59
2023/06/22 00:42:59;;;;;;;7.27;6.67;;;23.00;71.80;;;25.77;47.50;101876.28;5055403;28;20232;-60
2023/06/22 00:45:27;;;;;;;6.50;5.90;;;23.00;71.60;;;25.72;47.44;101881.59;5049925;28;20305;-58
2023/06/22 00:47:57;;;;;;;6.97;6.00;;;23.00;71.70;;;25.70;48.11;101878.31;5036075;28;20272;-58
2023/06/22 00:50:28;;;;;;;7.23;6.53;;;22.90;72.10;;;25.70;48.39;101881.03;5035841;28;20193;-59
2023/06/22 00:52:59;;;;;;;6.40;5.80;;;22.90;72.40;;;25.70;48.46;101886.41;5040835;28;20215;-59
2023/06/22 00:55:28;;;;;;;7.17;6.50;;;22.90;72.60;;;25.73;47.91;101880.50;5040754;28;20631;-58
2023/06/22 00:57:55;;;;;;;7.00;6.23;;;22.90;72.70;;;25.76;47.79;101874.63;5055693;28;20198;-59
2023/06/22 01:00:24;;;;;;;6.83;6.13;;;22.90;72.60;;;25.79;48.02;101879.53;5058301;28;20190;-59
2023/06/22 01:02:53;;;;;;;7.30;6.60;;;23.00;72.60;;;25.78;47.96;101875.19;5058205;28;20194;-57
2023/06/22 01:05:21;;;;;;;7.30;6.67;;;23.00;72.50;;;25.76;48.31;101874.63;5053083;28;20223;-57
2023/06/22 01:08:23;;;;;;;6.73;6.13;;;23.00;72.60;;;25.68;48.11;101875.03;5038442;28;20207;-60
2023/06/22 01:10:56;;;;;;;7.37;6.47;;;23.00;72.80;;;25.71;48.62;101871.84;5040307;28;20285;-58
2023/06/22 01:13:32;;;;;;;7.73;6.93;;;23.00;72.90;;;25.68;48.78;101878.53;5060241;28;20693;-60
2023/06/22 01:16:07;;;;;;;6.90;6.20;;;23.00;72.90;;;25.69;48.14;101874.81;5058887;28;20252;-59
2023/06/22 01:18:41;;;;;;;6.73;6.13;;;23.00;73.00;;;25.70;48.19;101864.84;5057964;28;20204;-60
2023/06/22 01:21:17;;;;;;;8.00;6.97;;;23.00;73.10;;;25.72;48.78;101873.50;5058030;28;20244;-60
2023/06/22 01:24:06;;;;;;;7.33;6.70;;;23.00;73.10;;;25.71;48.22;101872.66;5058015;28;20253;-59
2023/06/22 01:26:41;;;;;;;8.20;7.40;;;23.00;73.20;;;25.72;48.75;101868.09;5058395;28;20214;-57
2023/06/22 01:29:13;;;;;;;7.50;6.87;;;23.00;73.20;;;25.73;48.33;101864.31;5058365;28;20313;-59
2023/06/22 01:31:44;;;;;;;7.43;6.50;;;23.00;73.00;;;25.68;48.26;101856.16;5055004;28;20178;-60
2023/06/22 01:34:13;;;;;;;7.60;6.83;;;23.00;73.20;;;25.66;48.48;101864.50;5054328;28;20194;-60
2023/06/22 01:36:42;;;;;;;7.77;7.07;;;22.90;73.20;;;25.66;48.55;101871.75;5054423;28;20280;-56
2023/06/22 01:39:11;;;;;;;9.90;8.27;;;22.90;73.20;;;25.65;48.21;101872.84;5054429;28;20190;-60
2023/06/22 01:41:40;;;;;;;8.73;7.83;;;22.90;73.10;;;25.63;48.41;101872.25;5054552;28;20220;-64
2023/06/22 01:44:10;;;;;;;8.67;7.80;;;22.90;73.30;;;25.59;48.85;101861.16;5054270;28;20202;-59
2023/06/22 01:46:39;;;;;;;10.43;9.43;;;22.90;73.20;;;25.55;48.77;101863.50;5039985;28;20286;-56
2023/06/22 01:49:08;;;;;;;9.63;8.67;;;22.80;73.80;;;25.48;48.43;101846.69;5034330;28;20222;-59
2023/06/22 01:51:35;;;;;;;9.77;8.87;;;22.80;73.10;;;25.42;48.73;101842.25;5034464;28;20194;-57
2023/06/22 01:54:03;;;;;;;10.30;9.33;;;22.70;73.20;;;25.33;48.65;101838.34;5033999;28;20273;-58
2023/06/22 01:56:30;;;;;;;8.67;7.77;;;22.60;74.20;;;25.26;48.95;101842.25;5046589;28;20683;-60
2023/06/22 01:59:24;;;;;;;9.67;8.67;;;22.50;74.10;;;25.13;49.38;101843.38;5053901;28;20531;-59
2023/06/22 02:02:01;;;;;;;10.77;8.80;;;22.50;74.70;;;25.12;49.43;101844.44;5054216;28;20277;-60
2023/06/22 02:04:38;;;;;;;9.33;8.43;;;22.50;74.70;;;25.06;49.58;101842.72;5053207;28;20182;-60
2023/06/22 02:07:14;;;;;;;9.77;8.77;;;22.40;74.70;;;25.01;49.41;101842.63;5045118;28;20244;-59
2023/06/22 02:09:45;;;;;;;10.40;9.50;;;22.30;74.80;;;24.95;50.29;101843.59;5053720;28;20751;-60
2023/06/22 02:12:19;;;;;;;10.10;9.20;;;22.30;75.20;;;24.91;49.56;101845.16;5054189;28;20201;-56
2023/06/22 02:14:48;;;;;;;9.67;8.77;;;22.20;75.10;;;24.87;49.80;101849.38;5053417;28;20217;-59
2023/06/22 02:17:17;;;;;;;9.73;8.83;;;22.20;75.20;;;24.83;50.04;101853.63;5034896;28;20229;-59
2023/06/22 02:19:44;;;;;;;9.77;8.87;;;22.10;75.30;;;24.79;50.14;101855.16;5033914;28;20249;-57
2023/06/22 02:22:13;;;;;;;10.80;9.53;;;22.00;75.40;;;24.76;50.36;101852.91;5033820;28;20214;-59
2023/06/22 02:24:40;;;;;;;8.37;7.60;;;22.00;75.60;;;24.74;50.44;101844.25;5033486;28;20298;-59
2023/06/22 02:27:07;;;;;;;10.23;9.23;;;22.00;75.90;;;24.75;50.90;101853.97;5050757;28;20236;-58
2023/06/22 02:29:34;;;;;;;10.43;9.40;;;22.00;76.10;;;24.78;50.60;101850.81;5053718;28;20304;-60
2023/06/22 02:32:04;;;;;;;9.47;8.57;;;22.00;76.10;;;24.79;50.02;101853.25;5053441;28;20200;-58
2023/06/22 02:34:33;;;;;;;8.20;7.47;;;22.10;76.00;;;24.80;50.48;101851.41;5053345;28;20712;-56
2023/06/22 02:37:02;;;;;;;9.37;8.57;;;22.00;75.90;;;24.84;50.22;101852.56;5053624;28;20193;-58
2023/06/22 02:39:29;;;;;;;9.27;8.47;;;22.10;75.80;;;24.87;50.55;101855.59;5053708;28;20224;-58
2023/06/22 02:41:56;;;;;;;11.10;9.83;;;22.10;75.70;;;24.92;49.88;101865.63;5053451;28;20232;-59
2023/06/22 02:44:23;;;;;;;9.57;8.67;;;22.20;75.70;;;24.95;50.28;101854.38;5053232;28;20208;-56
2023/06/22 02:46:50;;;;;;;9.10;8.30;;;22.20;75.40;;;25.01;49.44;101849.91;5048701;28;20221;-59
2023/06/22 02:49:18;;;;;;;10.03;9.03;;;22.20;75.20;;;25.02;49.83;101844.25;5053423;28;20217;-59
2023/06/22 02:51:47;;;;;;;8.90;8.07;;;22.30;75.30;;;25.04;50.12;101838.63;5053660;28;20332;-58
2023/06/22 02:54:14;;;;;;;10.10;9.03;;;22.30;75.00;;;25.06;49.90;101847.28;5053096;28;20204;-62
2023/06/22 02:56:43;;;;;;;9.63;8.73;;;22.30;74.80;;;25.07;49.39;101846.22;5052871;28;20204;-57
2023/06/22 02:59:10;;;;;;;9.30;8.40;;;22.30;74.70;;;25.06;49.88;101848.09;5053462;28;20236;-59
2023/06/22 03:01:39;;;;;;;9.80;9.00;;;22.30;74.90;;;25.08;49.51;101845.97;5053274;28;20201;-57
2023/06/22 03:04:08;;;;;;;11.87;8.67;;;22.40;74.70;;;25.09;49.83;101855.72;5053068;28;20288;-58
2023/06/22 03:06:36;;;;;;;9.53;8.53;;;22.40;74.50;;;25.05;49.08;101851.88;5052402;28;20559;-60
2023/06/22 03:09:05;;;;;;;9.93;9.03;;;22.30;74.40;;;25.04;49.82;101855.63;5052937;28;20248;-59
2023/06/22 03:11:33;;;;;;;9.70;8.80;;;22.30;74.50;;;25.05;49.60;101862.66;5053139;28;20229;-57
2023/06/22 03:14:01;;;;;;;10.43;9.43;;;22.30;74.80;;;25.06;49.60;101864.28;5052679;28;20194;-57
2023/06/22 03:16:29;;;;;;;10.03;9.13;;;22.30;74.60;;;25.08;49.50;101861.34;5053669;28;20786;-59
2023/06/22 03:18:56;;;;;;;9.40;8.50;;;22.30;74.50;;;25.10;49.13;101856.53;5057104;28;20216;-59
2023/06/22 03:21:24;;;;;;;10.47;9.43;;;22.30;74.60;;;25.12;48.94;101857.94;5057097;28;20654;-56
2023/06/22 03:23:52;;;;;;;10.30;9.17;;;22.40;74.60;;;25.16;49.17;101859.06;5057244;28;20647;-59
2023/06/22 03:26:20;;;;;;;11.10;10.10;;;22.40;74.50;;;25.17;48.87;101866.09;5056371;28;20316;-59
2023/06/22 03:28:47;;;;;;;10.30;9.40;;;22.40;74.40;;;25.15;49.53;101862.81;5055709;28;20252;-56
2023/06/22 03:31:14;;;;;;;11.77;10.70;;;22.40;74.40;;;25.16;49.42;101859.06;5056953;28;20684;-57
2023/06/22 03:33:41;;;;;;;12.57;11.37;;;22.40;74.20;;;25.13;48.61;101859.53;5056535;28;20205;-55
2023/06/22 03:36:08;;;;;;;12.40;11.20;;;22.40;74.00;;;25.08;48.46;101864.84;5051605;28;20229;-56
2023/06/22 03:38:35;;;;;;;11.50;10.27;;;22.40;73.80;;;25.01;48.66;101866.88;5037431;28;20520;-57
2023/06/22 03:41:04;;;;;;;12.43;11.33;;;22.30;74.10;;;24.96;49.36;101868.69;5056573;28;20198;-57
2023/06/22 03:43:30;;;;;;;12.37;11.17;;;22.20;74.30;;;24.91;49.19;101872.09;5036258;28;20202;-58
2023/06/22 03:45:58;;;;;;;11.93;10.70;;;22.20;74.60;;;24.89;49.74;101879.59;5037108;28;20264;-60
2023/06/22 03:48:25;;;;;;;11.60;10.50;;;22.10;75.00;;;24.90;49.91;101875.84;5036509;28;20207;-58
2023/06/22 03:50:52;;;;;;;13.90;12.60;;;22.10;75.10;;;24.91;49.75;101882.88;5036664;28;20281;-58
2023/06/22 03:53:19;;;;;;;10.73;9.73;;;22.10;75.30;;;24.93;49.61;101894.22;5049823;28;20653;-59
2023/06/22 03:55:50;;;;;;;10.43;9.43;;;22.10;75.40;;;24.95;49.55;101881.31;5054737;28;20317;-58
2023/06/22 03:58:20;;;;;;;12.73;11.53;;;22.10;75.50;;;24.99;49.68;101887.84;5036496;28;20194;-59
2023/06/22 04:00:47;;;;;;;11.10;10.00;;;22.20;75.40;;;25.01;49.40;101887.63;5038263;28;20388;-58
2023/06/22 04:03:15;;;;;;;13.53;12.17;;;22.20;75.30;;;25.03;49.23;101886.31;5055935;28;20281;-57
2023/06/22 04:05:42;;;;;;;11.80;10.80;;;22.20;75.10;;;25.03;49.23;101891.69;5054852;28;20221;-59
2023/06/22 04:08:09;;;;;;;12.57;11.23;;;22.20;75.30;;;25.05;49.60;101892.31;5036011;28;20195;-59
2023/06/22 04:10:37;;;;;;;11.43;10.43;;;22.20;75.20;;;25.08;49.88;101894.50;5040723;28;20689;-59
2023/06/22 04:13:04;;;;;;;12.53;11.03;;;22.20;75.10;;;25.10;49.16;101895.09;5055488;28;20198;-58
2023/06/22 04:15:32;;;;;;;11.53;10.50;;;22.30;75.20;;;25.12;49.73;101892.13;5055958;28;20206;-58
2023/06/22 04:17:59;;;;;;;11.60;10.40;;;22.30;75.30;;;25.14;49.17;101888.16;5055847;28;20230;-58
2023/06/22 04:20:26;;;;;;;13.20;11.83;;;22.30;75.30;;;25.19;49.45;101896.31;5055637;28;20193;-58
2023/06/22 04:22:56;;;;;;;13.60;12.27;;;22.30;75.20;;;25.20;49.51;101889.84;5056115;28;20194;-58
2023/06/22 04:25:23;;;;;;;11.87;10.77;;;22.30;75.70;;;25.19;49.48;101895.50;5056414;28;20805;-57
2023/06/22 04:27:50;;;;;;;12.20;11.20;;;22.30;75.00;;;25.21;49.64;101896.06;5046519;28;20271;-56
2023/06/22 04:30:18;;;;;;;12.93;11.73;;;22.40;75.20;;;25.23;49.60;101889.38;5055538;28;20309;-57
2023/06/22 04:32:55;;;;;;;12.27;11.17;;;22.30;75.30;;;25.26;49.49;101894.28;5055961;28;20212;-57
2023/06/22 04:35:23;;;;;;;12.27;11.17;;;22.40;75.30;;;25.26;49.44;101891.59;5055515;28;20716;-59
2023/06/22 04:37:54;;;;;;;13.97;12.67;;;22.40;74.90;;;25.25;49.17;101884.56;5037637;28;20234;-60
2023/06/22 04:40:22;;;;;;;11.73;10.53;;;22.40;75.20;;;25.25;49.22;101887.25;5035547;28;20640;-59
2023/06/22 04:42:53;;;;;;;13.10;11.57;;;22.40;75.20;;;25.26;49.43;101886.19;5049118;28;20614;-59
2023/06/22 04:45:21;;;;;;;13.63;12.23;;;22.40;75.20;;;25.28;49.63;101888.66;5055540;28;20620;-57
2023/06/22 04:47:49;;;;;;;12.47;10.97;;;22.40;75.20;;;25.26;49.63;101886.19;5055316;28;20198;-58
2023/06/22 04:50:17;;;;;;;13.17;11.87;;;22.40;75.20;;;25.31;49.73;101889.00;5055178;28;20696;-58
2023/06/22 04:52:45;;;;;;;12.03;11.00;;;22.50;75.20;;;25.33;49.44;101891.44;5055225;28;20571;-58
2023/06/22 04:55:12;;;;;;;12.43;11.33;;;22.50;75.20;;;25.38;49.12;101899.63;5055389;28;20297;-57
2023/06/22 04:57:48;;;;;;;13.10;11.90;;;22.50;75.30;;;25.39;49.46;101885.88;5038596;28;20260;-58
2023/06/22 05:00:17;;;;;;;11.97;10.33;;;22.50;75.20;;;25.43;48.93;101886.22;5035221;28;20206;-63
2023/06/22 05:02:46;;;;;;;12.57;11.23;;;22.60;75.40;;;25.47;49.12;101890.91;5053595;28;20208;-58
2023/06/22 05:05:15;;;;;;;12.33;11.10;;;22.60;75.30;;;25.53;49.55;101883.72;5054420;28;20218;-57
2023/06/22 05:07:44;;;;;;;14.73;12.67;;;22.60;75.20;;;25.60;48.91;101880.84;5051930;28;20202;-59
2023/06/22 05:10:12;;;;;;;13.60;12.20;;;22.70;75.20;;;25.64;48.79;101887.38;5036049;28;20218;-59
2023/06/22 05:12:40;;;;;;;13.13;11.83;;;22.70;75.00;;;25.69;48.80;101884.78;5053986;28;20728;-57
2023/06/22 05:15:09;;;;;;;13.57;12.33;;;22.80;74.90;;;25.73;48.63;101886.72;5053668;28;20245;-57
2023/06/22 05:17:42;;;;;;;14.33;12.87;;;22.80;74.70;;;25.77;48.77;101890.56;5054430;28;20212;-58
2023/06/22 05:20:12;;;;;;;14.63;13.33;;;22.90;74.70;;;25.81;48.45;101885.50;5054527;28;20220;-58
2023/06/22 05:22:40;;;;;;;12.80;11.43;;;22.90;74.40;;;25.82;48.34;101874.44;5052624;28;20240;-58
2023/06/22 05:25:10;;;;;;;11.13;10.13;;;22.90;74.40;;;25.86;48.59;101872.09;5053874;28;20229;-59
2023/06/22 05:27:40;;;;;;;12.27;11.10;;;23.00;74.50;;;25.91;48.47;101872.16;5054467;28;20205;-59
2023/06/22 05:30:09;;;;;;;12.47;11.37;;;23.00;74.30;;;25.97;48.10;101876.56;5054527;28;20201;-59
2023/06/22 05:32:36;;;;;;;14.37;12.93;;;23.10;74.30;;;26.02;48.28;101873.94;5054770;28;20205;-57
2023/06/22 05:35:04;;;;;;;12.13;10.83;;;23.10;73.90;;;26.06;48.42;101872.34;5054425;28;20213;-59
2023/06/22 05:37:31;;;;;;;13.60;12.20;;;23.10;73.70;;;26.10;47.56;101877.03;5053618;28;20205;-60
2023/06/22 05:40:00;;;;;;;15.10;13.60;;;23.20;73.50;;;26.13;47.52;101867.63;5038859;28;20566;-60
2023/06/22 05:42:28;;;;;;;11.90;10.70;;;23.20;73.00;;;26.13;47.72;101870.31;5054031;28;20228;-60
2023/06/22 05:44:55;;;;;;;12.33;11.03;;;23.30;73.70;;;26.17;47.22;101866.88;5053197;28;20233;-60
2023/06/22 05:47:22;;;;;;;11.17;10.07;;;23.30;72.90;;;26.25;47.20;101867.50;5053820;28;20197;-60
2023/06/22 05:49:49;;;;;;;11.70;10.40;;;23.40;72.60;;;26.28;46.66;101862.44;5053260;28;20599;-60
2023/06/22 05:52:16;;;;;;;12.20;11.00;;;23.40;72.10;;;26.31;47.24;101869.22;5053174;28;20284;-59
2023/06/22 05:54:43;;;;;;;10.53;9.53;;;23.40;72.00;;;26.36;46.92;101864.69;5053370;28;20686;-58
2023/06/22 05:57:12;;;;;;;12.60;11.27;;;23.50;72.00;;;26.42;46.88;101873.66;5038162;28;20192;-56
2023/06/22 05:59:39;;;;;;;13.03;10.50;;;23.50;71.50;;;26.46;46.23;101864.81;5033781;28;20215;-55
2023/06/22 06:02:06;;;;;;;11.20;9.80;;;23.60;71.60;;;26.56;46.83;101864.09;5046664;28;20193;-59
2023/06/22 06:04:34;;;;;;;10.20;9.03;;;23.60;71.60;;;26.67;46.63;101872.06;5052787;28;20214;-57
2023/06/22 06:07:01;;;;;;;10.23;8.53;;;23.70;71.70;;;26.80;46.15;101869.03;5053448;28;20561;-59
2023/06/22 06:09:28;;;;;;;10.23;9.33;;;23.70;71.30;;;26.88;45.70;101861.53;5053495;28;20244;-57
2023/06/22 06:11:55;;;;;;;11.50;8.87;;;23.90;71.20;;;26.96;45.61;101858.38;5053128;28;20194;-59
2023/06/22 06:14:23;;;;;;;9.60;8.70;;;23.90;70.80;;;27.03;45.91;101864.38;5052068;28;20194;-58
2023/06/22 06:16:50;;;;;;;8.40;7.47;;;24.00;70.70;;;27.08;45.27;101862.53;5053637;28;20218;-58
2023/06/22 06:19:17;;;;;;;11.07;9.40;;;24.10;70.50;;;27.17;45.41;101865.59;5053245;28;20276;-59
2023/06/22 06:21:44;;;;;;;7.97;7.13;;;24.20;70.20;;;27.24;44.83;101867.00;5053356;28;20204;-59
2023/06/22 06:24:12;;;;;;;8.93;7.43;;;24.20;69.90;;;27.29;44.70;101858.13;5037842;28;20206;-60
2023/06/22 06:26:39;;;;;;;8.47;7.67;;;24.30;69.50;;;27.32;44.50;101857.59;5033289;28;20285;-60
2023/06/22 06:29:09;;;;;;;9.07;8.17;;;24.40;69.30;;;27.34;44.43;101855.44;5047465;28;20285;-58
2023/06/22 06:31:37;;;;;;;9.13;8.17;;;24.40;69.00;;;27.37;44.63;101860.34;5053211;28;20701;-59
2023/06/22 06:34:04;;;;;;;21.43;18.77;;;24.40;68.90;;;27.45;44.67;101862.63;5052737;28;20186;-58
2023/06/22 06:36:31;;;;;;;22.20;20.07;;;24.50;68.90;;;27.53;44.20;101872.94;5053232;28;20534;-57
2023/06/22 06:38:58;;;;;;;10.60;9.50;;;24.60;69.00;;;27.62;44.28;101857.88;5053148;28;20193;-59
2023/06/22 06:41:25;;;;;;;10.10;9.13;;;24.60;68.70;;;27.68;44.11;101862.22;5053269;28;20213;-57
2023/06/22 06:43:52;;;;;;;10.20;9.20;;;24.70;68.50;;;27.70;43.97;101854.66;5052681;28;20276;-58
2023/06/22 06:46:19;;;;;;;9.47;8.60;;;24.70;68.20;;;27.70;44.01;101854.66;5047740;28;20239;-59
2023/06/22 06:48:48;;;;;;;8.57;7.67;;;24.70;68.20;;;27.71;43.80;101845.47;5052996;28;20650;-60
2023/06/22 06:51:15;;;;;;;11.20;10.10;;;24.70;68.20;;;27.73;43.75;101851.44;5056538;28;20228;-61
2023/06/22 06:53:42;;;;;;;9.17;8.27;;;24.70;68.30;;;27.79;43.85;101847.69;5059207;28;20260;-57
2023/06/22 06:56:10;;;;;;;10.43;9.20;;;24.80;68.30;;;27.86;43.83;101852.88;5059456;28;20244;-58
2023/06/22 06:58:40;;;;;;;8.00;7.07;;;24.90;68.40;;;27.96;43.99;101852.91;5059236;28;20263;-59
2023/06/22 07:01:07;;;;;;;7.77;7.03;;;24.90;68.30;;;28.05;43.61;101857.59;5059191;28;20236;-59
2023/06/22 07:03:35;;;;;;;7.07;6.37;;;25.00;68.20;;;28.16;43.64;101856.59;5058675;28;20197;-58
2023/06/22 07:06:03;;;;;;;7.13;6.30;;;25.10;68.20;;;28.29;43.27;101855.28;5058809;28;20677;-58
2023/06/22 07:08:30;;;;;;;7.73;6.47;;;25.20;67.80;;;28.42;43.14;101862.94;5059152;28;20193;-58
2023/06/22 07:10:57;;;;;;;6.73;6.10;;;25.30;67.50;;;28.54;42.97;101855.38;5058987;28;20240;-56
2023/06/22 07:13:24;;;;;;;5.83;4.77;;;25.40;67.20;;;28.65;42.67;101856.25;5047689;28;20297;-58
2023/06/22 07:15:51;;;;;;;7.93;7.13;;;25.50;67.00;;;28.76;42.49;101857.91;5047317;28;20214;-57
2023/06/22 07:18:18;;;;;;;6.53;5.63;;;25.60;66.40;;;28.83;42.19;101858.47;5050502;28;20214;-59
2023/06/22 07:20:45;;;;;;;6.67;6.10;;;25.70;66.10;;;28.91;42.06;101855.22;5047838;28;20685;-58
2023/06/22 07:23:14;;;;;;;6.07;5.47;;;25.80;65.70;;;29.00;41.46;101863.66;5050801;28;20650;-58
2023/06/22 07:25:41;;;;;;;6.77;6.10;;;25.90;65.20;;;29.06;41.55;101857.94;5050562;28;20674;-60
2023/06/22 07:28:09;;;;;;;6.27;5.30;;;26.00;65.10;;;29.16;41.73;101852.53;5048033;28;20204;-58
2023/06/22 07:30:36;;;;;;;8.00;6.50;;;26.10;65.00;;;29.26;41.37;101849.03;5048271;28;20201;-56
2023/06/22 07:33:04;;;;;;;8.47;7.50;;;26.20;64.30;;;29.34;41.00;101845.78;5055728;28;20641;-59
2023/06/22 07:35:32;;;;;;;8.53;7.63;;;26.20;64.10;;;29.41;41.01;101849.03;5049630;28;20246;-56
2023/06/22 07:37:59;;;;;;;6.17;5.57;;;26.30;63.30;;;29.46;40.58;101841.69;5053518;28;20288;-58
2023/06/22 07:40:31;;;;;;;7.63;6.90;;;26.40;63.00;;;29.56;40.41;101842.75;5051414;28;20190;-54
2023/06/22 07:42:58;;;;;;;6.47;5.87;;;26.50;62.90;;;29.62;40.37;101845.19;5044950;28;20226;-54
2023/06/22 07:45:25;;;;;;;8.53;7.67;;;26.60;62.10;;;29.69;40.27;101850.34;5055090;28;20311;-57
2023/06/22 07:47:52;;;;;;;22.87;15.57;;;26.60;62.00;;;29.72;39.84;101849.78;5049533;28;20536;-56
2023/06/22 07:50:20;;;;;;;11.83;6.47;;;26.80;61.40;;;29.79;39.91;101848.44;5040613;28;20709;-57
2023/06/22 07:52:47;;;;;;;6.27;5.40;;;26.80;61.40;;;29.85;39.28;101841.13;5052826;28;20201;-56
2023/06/22 07:55:14;;;;;;;6.43;5.13;;;26.80;60.70;;;29.87;38.70;101836.22;5053903;28;20300;-59
2023/06/22 07:57:43;;;;;;;5.83;5.17;;;26.90;60.00;;;29.94;38.55;101834.03;5051578;28;20226;-57
2023/06/22 08:00:15;;;;;;;7.17;6.57;;;26.90;59.80;;;29.98;38.73;101827.75;5046368;28;20214;-58
2023/06/22 08:02:45;;;;;;;6.67;5.97;;;27.00;59.70;;;30.04;38.40;101826.66;5042958;28;20259;-56
2023/06/22 08:05:14;;;;;;;8.77;6.30;;;27.10;59.40;;;30.09;38.68;101817.69;5050162;28;20213;-59
2023/06/22 08:08:01;;;;;;;9.53;5.27;;;27.20;59.30;;;30.21;38.39;101820.88;5046076;28;20723;-58
2023/06/22 08:10:29;;;;;;;6.60;5.13;;;27.30;59.50;;;30.38;38.21;101813.19;5048604;28;20213;-59
2023/06/22 08:12:57;;;;;;;5.53;4.97;;;27.40;59.50;;;30.56;38.55;101817.19;5049467;28;20625;-58
2023/06/22 08:15:26;;;;;;;6.90;5.50;;;27.40;59.20;;;30.70;38.22;101816.28;5042932;28;20361;-57
2023/06/22 08:17:54;;;;;;;6.67;4.60;;;27.60;59.00;;;30.89;38.18;101815.63;5042300;28;20194;-54
2023/06/22 08:20:21;;;;;;;5.53;5.10;;;27.70;59.10;;;31.32;37.43;101803.84;5045205;28;20190;-58
2023/06/22 08:22:48;;;;;;;4.57;4.17;;;27.80;58.70;;;32.09;36.45;101809.00;5051421;28;20201;-57
2023/06/22 08:25:15;;;;;;;4.90;4.40;;;28.10;58.70;;;33.17;34.92;101805.25;5044008;28;20297;-57
2023/06/22 08:27:46;;;;;;;4.63;4.23;;;28.50;58.40;;;34.46;33.26;101806.81;5040801;28;20200;-58
2023/06/22 08:30:17;;;;;;;7.90;6.20;;;29.00;57.40;;;35.63;30.63;101808.31;5049781;28;20213;-57
2023/06/22 08:32:44;;;;;;;6.60;5.13;;;29.70;55.50;;;36.48;28.99;101807.72;5049581;28;20265;-57
2023/06/22 08:35:11;;;;;;;7.53;5.90;;;30.40;52.80;;;37.33;28.64;101810.38;5048603;28;20219;-58
2023/06/22 08:37:39;;;;;;;22.08;19.98;;;31.10;51.80;;;38.08;27.00;101807.97;5044676;28;20194;-60
2023/06/22 08:40:09;;;;;;;6.88;5.45;;;31.60;49.50;;;38.76;25.85;101803.88;5039635;28;20537;-58
2023/06/22 08:42:37;;;;;;;8.63;5.32;;;32.30;47.40;;;39.13;24.59;101811.13;5053208;28;20296;-59
2023/06/22 08:45:06;;;;;;;9.93;4.20;;;32.90;44.00;;;39.43;23.81;101800.75;5047471;28;20276;-61
2023/06/22 08:47:35;;;;;;;15.07;5.68;;;33.30;41.80;;;39.77;23.57;101801.13;5043431;28;20234;-58
2023/06/22 08:50:03;;;;;;;17.70;5.95;;;33.70;40.40;;;40.10;22.99;101802.97;5039170;28;20722;-55
2023/06/22 08:52:31;;;;;;;7.63;4.60;;;34.10;40.30;;;40.50;23.45;101795.50;5045852;28;20225;-57
2023/06/22 08:54:58;;;;;;;7.38;4.03;;;34.50;40.20;;;41.10;22.89;101792.44;5045078;28;20245;-56
2023/06/22 08:57:25;;;;;;;10.73;4.45;;;34.90;40.40;;;41.81;22.59;101794.25;5051274;28;20202;-58
2023/06/22 08:59:53;;;;;;;8.38;3.60;;;35.30;39.50;;;42.51;21.63;101794.25;5045275;28;20276;-58
2023/06/22 09:02:20;;;;;;;4.38;3.90;;;35.70;38.40;;;43.09;20.98;101787.44;5043407;28;20225;-59
2023/06/22 09:04:49;;;;;;;5.55;3.88;;;36.10;37.70;;;43.46;19.40;101790.47;5043131;28;20210;-59
2023/06/22 09:07:22;;;;;;;7.68;4.25;;;36.50;34.50;;;43.82;19.06;101791.81;5040118;28;20201;-56
2023/06/22 09:09:50;;;;;;;25.27;9.70;;;36.80;34.20;;;44.18;19.14;101782.81;5038208;28;20281;-60
2023/06/22 09:12:22;;;;;;;6.55;5.88;;;37.00;33.80;;;44.45;18.37;101784.34;5040674;28;20206;-59
2023/06/22 09:14:49;;;;;;;9.52;4.75;;;37.20;33.60;;;44.43;17.79;101784.72;5014375;28;20250;-59
2023/06/22 09:17:16;;;;;;;27.42;7.82;;;37.50;32.00;;;44.56;18.28;101782.50;5034271;28;20214;-59
2023/06/22 09:19:43;;;;;;;26.50;5.82;;;37.60;31.60;;;44.65;17.82;101779.44;5052431;28;20198;-59
2023/06/22 09:22:32;;;;;;;11.20;4.97;;;37.80;30.80;;;44.51;17.75;101780.06;5050198;28;20225;-63
2023/06/22 09:24:59;;;;;;;4.40;4.10;;;38.10;30.30;;;44.34;18.00;101775.88;5050018;28;20748;-58
2023/06/22 09:27:26;;;;;;;30.23;8.10;;;38.10;29.80;;;44.46;18.04;101769.28;5046467;28;20257;-61
2023/06/22 09:29:53;;;;;;;7.32;5.60;;;38.10;30.40;;;44.73;17.49;101770.78;5045068;28;20230;-60
2023/06/22 09:32:20;;;;;;;9.88;5.93;;;38.20;30.20;;;44.96;17.70;101763.06;5046242;28;20201;-63
2023/06/22 09:34:48;;;;;;;15.48;6.65;;;38.30;30.20;;;45.08;17.62;101775.13;5052653;28;20253;-57
2023/06/22 09:37:17;;;;;;;5.70;4.88;;;38.30;30.00;;;44.93;17.42;101761.06;5049601;28;20198;-59
2023/06/22 09:39:45;;;;;;;5.85;5.18;;;38.40;29.90;;;44.81;17.15;101760.53;5044226;28;20206;-60
2023/06/22 09:42:13;;;;;;;6.22;4.60;;;38.30;29.60;;;44.76;17.48;101753.34;5047726;28;20186;-59
2023/06/22 09:44:40;;;;;;;6.13;4.95;;;38.30;30.00;;;44.83;18.06;101753.44;5049414;28;20214;-57
2023/06/22 09:47:07;;;;;;;10.55;9.60;;;38.30;30.10;;;44.65;18.15;101746.84;5048091;28;20623;-60
2023/06/22 09:49:34;;;;;;;6.65;6.05;;;38.20;30.00;;;44.19;18.30;101748.31;5050683;28;20221;-59
2023/06/22 09:52:14;;;;;;;5.25;4.75;;;38.20;30.00;;;43.58;19.05;101749.41;5047254;28;20834;-61
2023/06/22 09:54:41;;;;;;;5.45;4.90;;;38.00;30.00;;;42.51;19.64;101744.38;5050899;28;20753;-56
2023/06/22 09:57:10;;;;;;;5.35;4.95;;;37.80;30.20;;;42.07;20.45;101741.84;5048134;28;20189;-58
2023/06/22 09:59:37;;;;;;;5.30;4.80;;;37.40;30.90;;;42.22;20.26;101732.66;5048974;28;20203;-57
2023/06/22 10:02:05;;;;;;;7.72;5.00;;;37.20;31.50;;;42.45;19.86;101732.75;5051950;28;20212;-59
2023/06/22 10:04:32;;;;;;;9.38;4.07;;;37.10;32.10;;;42.80;19.98;101727.88;5052605;28;20259;-58
2023/06/22 10:07:00;;;;;;;6.88;6.25;;;37.10;32.20;;;43.36;19.39;101725.31;5052680;28;20745;-58
2023/06/22 10:09:27;;;;;;;6.65;4.85;;;37.10;32.10;;;43.81;19.36;101718.03;5048543;28;20273;-57
2023/06/22 10:11:54;;;;;;;4.75;4.43;;;37.30;32.30;;;44.29;18.98;101717.84;5047655;28;20206;-58
2023/06/22 10:14:24;;;;;;;5.88;4.32;;;37.50;32.00;;;44.43;18.95;101706.13;5045255;28;20546;-57